Time;durP1;ratioP1;P1;durP2;ratioP2;P2;SDS_P1;SDS_P2;PMS_P1;PMS_P2;Temp;Humidity;BMP_temperature;BMP_pressure;BME280_temperature;BME280_humidity;BME280_pressure;Samples;Min_cycle;Max_cycle;Signal;HPM_P1;HPM_P2
2022/01/20 00:02:05;;;;;;;15.13;4.87;;;;;;;;;;5053465;28;20493;-63
2022/01/20 00:04:48;;;;;;;16.87;4.57;;;;;;;;;;5053515;28;20439;-65
2022/01/20 00:26:32;;;;;;;17.03;4.67;;;;;;;;;;5033265;28;20526;-64
2022/01/20 00:29:01;;;;;;;15.67;4.30;;;;;;;;;;5033431;28;20452;-63
2022/01/20 00:31:44;;;;;;;25.40;5.50;;;;;;;;;;5033077;28;20436;-64
2022/01/20 00:34:17;;;;;;;22.63;4.53;;;;;;;;;;5033205;28;20435;-64
2022/01/20 00:39:28;;;;;;;13.00;3.97;;;;;;;;;;5033070;28;20414;-65
2022/01/20 00:41:56;;;;;;;22.30;4.97;;;;;;;;;;5032863;28;20533;-65
2022/01/20 00:44:24;;;;;;;19.33;4.53;;;;;;;;;;5032981;28;20470;-66
2022/01/20 00:46:50;;;;;;;18.47;5.20;;;;;;;;;;5032783;28;20444;-65
2022/01/20 00:49:16;;;;;;;16.83;4.20;;;;;;;;;;5031014;28;20436;-63
2022/01/20 00:51:42;;;;;;;15.13;4.53;;;;;;;;;;5032777;28;20428;-64
2022/01/20 00:54:08;;;;;;;16.73;4.17;;;;;;;;;;5032734;28;20519;-64
2022/01/20 00:56:34;;;;;;;16.87;4.20;;;;;;;;;;5032606;28;20470;-64
2022/01/20 00:59:02;;;;;;;18.70;4.20;;;;;;;;;;5032456;28;20436;-63
2022/01/20 01:01:28;;;;;;;25.23;4.23;;;;;;;;;;5032330;28;20695;-63
2022/01/20 01:03:53;;;;;;;15.17;4.37;;;;;;;;;;5032343;28;20458;-62
2022/01/20 01:06:36;;;;;;;20.67;4.03;;;;;;;;;;5032416;28;20500;-60
2022/01/20 01:09:03;;;;;;;18.97;4.33;;;;;;;;;;5032477;28;20204;-60
2022/01/20 01:11:29;;;;;;;13.90;4.37;;;;;;;;;;5032198;28;20503;-61
2022/01/20 01:13:56;;;;;;;17.20;5.30;;;;;;;;;;5032332;28;20474;-62
2022/01/20 01:16:35;;;;;;;16.37;4.03;;;;;;;;;;5032448;28;20440;-61
2022/01/20 01:21:52;;;;;;;18.73;4.30;;;;;;;;;;5032210;28;20969;-64
2022/01/20 01:24:18;;;;;;;20.20;4.10;;;;;;;;;;5032253;28;20432;-66
2022/01/20 01:26:44;;;;;;;15.13;3.93;;;;;;;;;;5032211;28;20440;-63
2022/01/20 01:29:32;;;;;;;16.23;4.23;;;;;;;;;;5032251;28;20436;-62
2022/01/20 01:31:57;;;;;;;12.97;4.10;;;;;;;;;;5032017;28;20440;-62
2022/01/20 01:34:28;;;;;;;23.00;4.53;;;;;;;;;;5032001;28;20962;-62
2022/01/20 01:37:06;;;;;;;20.87;3.90;;;;;;;;;;5031787;28;20435;-62
2022/01/20 01:39:32;;;;;;;15.80;3.93;;;;;;;;;;5031923;28;20978;-62
2022/01/20 01:41:59;;;;;;;16.87;3.93;;;;;;;;;;5031918;28;20991;-62
2022/01/20 01:44:28;;;;;;;24.30;5.43;;;;;;;;;;5031958;28;20424;-62
2022/01/20 01:46:55;;;;;;;16.30;4.50;;;;;;;;;;5031910;28;20443;-62
2022/01/20 01:49:22;;;;;;;16.10;4.30;;;;;;;;;;5031942;28;20493;-62
2022/01/20 01:51:48;;;;;;;21.43;4.63;;;;;;;;;;5031721;28;20583;-62
2022/01/20 01:54:16;;;;;;;11.13;3.70;;;;;;;;;;5031988;28;20522;-62
2022/01/20 01:56:42;;;;;;;15.97;3.77;;;;;;;;;;5031856;28;20757;-62
2022/01/20 01:59:08;;;;;;;25.70;5.10;;;;;;;;;;5031881;28;20470;-62
2022/01/20 02:01:37;;;;;;;18.43;3.90;;;;;;;;;;5031617;28;20507;-62
2022/01/20 02:04:13;;;;;;;16.93;4.03;;;;;;;;;;5031243;28;20695;-62
2022/01/20 02:20:23;;;;;;;16.97;4.27;;;;;;;;;;5031347;28;20855;-61
2022/01/20 02:22:51;;;;;;;18.73;4.03;;;;;;;;;;5031192;28;20983;-62
2022/01/20 02:25:18;;;;;;;22.90;4.30;;;;;;;;;;5031349;28;20431;-61
2022/01/20 02:27:44;;;;;;;10.37;3.37;;;;;;;;;;5031426;28;20439;-60
2022/01/20 02:30:10;;;;;;;19.33;4.47;;;;;;;;;;5031377;28;20451;-61
2022/01/20 02:32:36;;;;;;;22.37;4.37;;;;;;;;;;5030995;28;20455;-61
2022/01/20 02:35:07;;;;;;;16.07;4.90;;;;;;;;;;5031215;28;20443;-62
2022/01/20 02:37:34;;;;;;;17.63;3.83;;;;;;;;;;5031247;28;20197;-62
2022/01/20 02:45:29;;;;;;;12.87;3.13;;;;;;;;;;5031367;28;20434;-61
2022/01/20 02:47:55;;;;;;;17.87;3.47;;;;;;;;;;5032453;28;20532;-61
2022/01/20 02:50:21;;;;;;;9.97;3.20;;;;;;;;;;5034928;28;20459;-61
2022/01/20 02:52:49;;;;;;;8.53;2.73;;;;;;;;;;5034738;28;20199;-61
2022/01/20 02:55:15;;;;;;;8.53;2.60;;;;;;;;;;5034870;28;20451;-62
2022/01/20 02:57:41;;;;;;;8.87;2.83;;;;;;;;;;5034682;28;20451;-61
2022/01/20 03:00:07;;;;;;;11.60;3.17;;;;;;;;;;5034832;28;20250;-61
2022/01/20 03:02:33;;;;;;;7.33;2.30;;;;;;;;;;5034388;28;20483;-62
2022/01/20 03:04:59;;;;;;;12.83;2.77;;;;;;;;;;5034842;28;20488;-62
2022/01/20 03:07:26;;;;;;;10.67;3.13;;;;;;;;;;5034428;28;20841;-61
2022/01/20 03:09:53;;;;;;;8.43;2.40;;;;;;;;;;5034377;28;20266;-62
2022/01/20 03:12:19;;;;;;;7.83;2.37;;;;;;;;;;5034126;28;20494;-62
2022/01/20 03:14:45;;;;;;;8.20;2.30;;;;;;;;;;5034413;28;20927;-62
2022/01/20 03:17:13;;;;;;;7.23;2.40;;;;;;;;;;5034490;28;20197;-62
2022/01/20 03:19:39;;;;;;;7.87;1.97;;;;;;;;;;5034352;28;20204;-61
2022/01/20 03:22:05;;;;;;;6.13;2.07;;;;;;;;;;5034000;28;20540;-60
2022/01/20 03:24:31;;;;;;;6.07;1.93;;;;;;;;;;5034222;28;20436;-61
2022/01/20 03:26:58;;;;;;;6.87;2.67;;;;;;;;;;5034173;28;20742;-60
2022/01/20 03:29:24;;;;;;;5.83;2.10;;;;;;;;;;5034088;28;20930;-61
2022/01/20 03:31:50;;;;;;;5.30;2.23;;;;;;;;;;5034024;28;20497;-61
2022/01/20 03:34:16;;;;;;;8.70;2.10;;;;;;;;;;5034245;28;20247;-61
2022/01/20 03:36:42;;;;;;;5.60;1.90;;;;;;;;;;5034062;28;20448;-61
2022/01/20 03:39:08;;;;;;;5.17;2.10;;;;;;;;;;5033847;28;20453;-61
2022/01/20 03:41:34;;;;;;;7.87;2.23;;;;;;;;;;5033800;28;20228;-61
2022/01/20 03:44:02;;;;;;;7.20;2.17;;;;;;;;;;5033923;28;20204;-61
2022/01/20 03:46:28;;;;;;;10.03;2.17;;;;;;;;;;5034018;28;20468;-61
2022/01/20 03:49:02;;;;;;;6.37;1.80;;;;;;;;;;5033772;28;20432;-61
2022/01/20 03:51:28;;;;;;;4.77;1.87;;;;;;;;;;5033938;28;20431;-60
2022/01/20 03:53:55;;;;;;;5.13;1.87;;;;;;;;;;5033355;28;20439;-60
2022/01/20 03:56:21;;;;;;;6.03;2.27;;;;;;;;;;5033724;28;20436;-60
2022/01/20 03:58:48;;;;;;;7.70;2.10;;;;;;;;;;5033266;28;20510;-60
2022/01/20 04:01:15;;;;;;;6.43;1.80;;;;;;;;;;5033664;28;20475;-60
2022/01/20 04:03:41;;;;;;;4.10;1.70;;;;;;;;;;5033488;28;20451;-61
2022/01/20 04:06:07;;;;;;;7.37;2.07;;;;;;;;;;5033578;28;20436;-62
2022/01/20 04:08:34;;;;;;;4.73;1.60;;;;;;;;;;5033386;28;20583;-62
2022/01/20 04:11:01;;;;;;;5.57;1.73;;;;;;;;;;5033215;28;20479;-62
2022/01/20 04:13:30;;;;;;;7.63;2.50;;;;;;;;;;5033731;28;20463;-62
2022/01/20 04:15:56;;;;;;;4.83;2.27;;;;;;;;;;5033381;28;20436;-62
2022/01/20 04:18:26;;;;;;;6.97;2.20;;;;;;;;;;5033252;28;20442;-62
2022/01/20 04:20:52;;;;;;;3.60;1.80;;;;;;;;;;5033019;28;20509;-62
2022/01/20 04:23:18;;;;;;;4.77;2.00;;;;;;;;;;5033033;28;20444;-62
2022/01/20 04:25:44;;;;;;;5.03;2.03;;;;;;;;;;5033074;28;20427;-62
2022/01/20 04:28:10;;;;;;;6.23;2.37;;;;;;;;;;5033103;28;20440;-61
2022/01/20 04:30:37;;;;;;;8.97;2.10;;;;;;;;;;5033053;28;20809;-62
2022/01/20 04:33:03;;;;;;;4.90;2.00;;;;;;;;;;5032846;28;21012;-62
2022/01/20 04:35:31;;;;;;;4.73;2.00;;;;;;;;;;5032998;28;20444;-62
2022/01/20 04:37:58;;;;;;;8.80;2.30;;;;;;;;;;5032733;28;20436;-62
2022/01/20 04:40:24;;;;;;;8.83;2.10;;;;;;;;;;5032786;28;20432;-62
2022/01/20 04:42:51;;;;;;;8.87;2.53;;;;;;;;;;5032523;28;20468;-62
2022/01/20 04:45:25;;;;;;;8.90;2.23;;;;;;;;;;5032840;28;20866;-62
2022/01/20 04:58:50;;;;;;;12.43;2.77;;;;;;;;;;5032469;28;20918;-62
2022/01/20 05:01:16;;;;;;;13.17;3.00;;;;;;;;;;5032410;28;21047;-62
2022/01/20 05:03:44;;;;;;;7.53;2.40;;;;;;;;;;5032304;28;20221;-61
2022/01/20 05:06:12;;;;;;;7.90;3.30;;;;;;;;;;5032331;28;20914;-62
2022/01/20 05:08:38;;;;;;;10.10;2.93;;;;;;;;;;5031960;28;20439;-61
2022/01/20 05:11:04;;;;;;;8.00;2.97;;;;;;;;;;5031521;28;20468;-62
2022/01/20 05:13:36;;;;;;;8.63;2.87;;;;;;;;;;5032123;28;21022;-61
2022/01/20 05:16:03;;;;;;;6.73;3.17;;;;;;;;;;5032202;28;20527;-61
2022/01/20 05:18:28;;;;;;;9.20;2.60;;;;;;;;;;5032056;28;20447;-62
2022/01/20 05:20:54;;;;;;;10.27;3.23;;;;;;;;;;5031838;28;20440;-61
2022/01/20 05:23:22;;;;;;;10.80;3.47;;;;;;;;;;5031961;28;20255;-61
2022/01/20 05:25:48;;;;;;;9.77;3.07;;;;;;;;;;5031882;28;20451;-61
2022/01/20 05:28:14;;;;;;;9.50;2.53;;;;;;;;;;5032059;28;20439;-61
2022/01/20 05:30:40;;;;;;;8.53;2.53;;;;;;;;;;5031903;28;20572;-62
2022/01/20 05:33:06;;;;;;;7.27;2.53;;;;;;;;;;5031963;28;20193;-61
2022/01/20 05:35:32;;;;;;;6.47;2.70;;;;;;;;;;5031814;28;20444;-61
2022/01/20 05:37:58;;;;;;;10.90;3.17;;;;;;;;;;5031830;28;20447;-61
2022/01/20 05:40:26;;;;;;;8.83;2.70;;;;;;;;;;5031995;28;20436;-61
2022/01/20 05:42:52;;;;;;;12.23;4.03;;;;;;;;;;5031750;28;20842;-61
2022/01/20 05:45:19;;;;;;;8.87;3.13;;;;;;;;;;5031699;28;20819;-61
2022/01/20 05:47:47;;;;;;;9.77;3.20;;;;;;;;;;5032110;28;20494;-62
2022/01/20 05:50:15;;;;;;;6.83;2.97;;;;;;;;;;5031937;28;20431;-62
2022/01/20 05:52:41;;;;;;;5.33;2.57;;;;;;;;;;5031612;28;20530;-62
2022/01/20 05:55:08;;;;;;;9.83;3.30;;;;;;;;;;5031580;28;20514;-63
2022/01/20 05:57:36;;;;;;;8.57;3.00;;;;;;;;;;5031607;28;20485;-63
2022/01/20 06:00:02;;;;;;;10.37;2.60;;;;;;;;;;5031491;28;20459;-63
2022/01/20 06:02:35;;;;;;;12.30;3.00;;;;;;;;;;5031784;28;20475;-64
2022/01/20 06:05:01;;;;;;;11.40;3.20;;;;;;;;;;5031505;28;20442;-63
2022/01/20 06:07:27;;;;;;;7.30;2.70;;;;;;;;;;5031575;28;20550;-64
2022/01/20 06:09:53;;;;;;;11.30;2.50;;;;;;;;;;5031281;28;20939;-63
2022/01/20 06:12:19;;;;;;;8.73;2.90;;;;;;;;;;5031014;28;20472;-63
2022/01/20 06:14:47;;;;;;;10.73;3.00;;;;;;;;;;5030930;28;20205;-63
2022/01/20 06:17:13;;;;;;;5.90;2.33;;;;;;;;;;5031327;28;20204;-64
2022/01/20 06:19:39;;;;;;;5.13;2.30;;;;;;;;;;5031061;28;20472;-63
2022/01/20 06:22:05;;;;;;;12.37;2.80;;;;;;;;;;5031057;28;20783;-62
2022/01/20 06:24:31;;;;;;;9.63;3.30;;;;;;;;;;5035359;28;20207;-63
2022/01/20 06:26:57;;;;;;;6.13;2.67;;;;;;;;;;5035280;28;20292;-63
2022/01/20 06:29:23;;;;;;;13.07;3.40;;;;;;;;;;5035142;28;20478;-63
2022/01/20 06:31:50;;;;;;;11.43;3.37;;;;;;;;;;5034801;28;20439;-63
2022/01/20 06:34:16;;;;;;;11.90;3.20;;;;;;;;;;5034973;28;20459;-63
2022/01/20 06:36:42;;;;;;;14.80;3.13;;;;;;;;;;5034940;28;20922;-62
2022/01/20 06:39:08;;;;;;;15.37;3.17;;;;;;;;;;5034422;28;20201;-63
2022/01/20 06:41:37;;;;;;;9.60;2.80;;;;;;;;;;5034724;28;20216;-64
2022/01/20 06:44:04;;;;;;;10.23;2.67;;;;;;;;;;5034692;28;20432;-64
2022/01/20 06:46:30;;;;;;;12.80;3.10;;;;;;;;;;5034836;28;20443;-63
2022/01/20 06:48:57;;;;;;;10.97;2.93;;;;;;;;;;5034682;28;20807;-63
2022/01/20 06:51:23;;;;;;;10.27;2.90;;;;;;;;;;5034567;28;20707;-62
2022/01/20 06:53:49;;;;;;;11.00;2.87;;;;;;;;;;5034518;28;20440;-63
2022/01/20 06:56:15;;;;;;;7.50;3.20;;;;;;;;;;5034857;28;20439;-62
2022/01/20 06:58:41;;;;;;;7.50;2.53;;;;;;;;;;5034698;28;20601;-62
2022/01/20 07:01:07;;;;;;;9.27;2.70;;;;;;;;;;5034521;28;20207;-62
2022/01/20 07:03:33;;;;;;;8.43;2.83;;;;;;;;;;5034459;28;20451;-63
2022/01/20 07:06:00;;;;;;;7.47;2.47;;;;;;;;;;5034305;28;20204;-63
2022/01/20 07:08:26;;;;;;;9.33;2.87;;;;;;;;;;5034377;28;20216;-63
2022/01/20 07:10:52;;;;;;;11.37;3.23;;;;;;;;;;5034085;28;20472;-62
2022/01/20 07:13:18;;;;;;;14.97;3.20;;;;;;;;;;5033905;28;20719;-62
2022/01/20 07:15:44;;;;;;;13.70;2.97;;;;;;;;;;5033648;28;20216;-63
2022/01/20 07:18:10;;;;;;;8.33;2.93;;;;;;;;;;5033909;28;20201;-62
2022/01/20 07:20:36;;;;;;;9.67;2.80;;;;;;;;;;5033832;28;20462;-62
2022/01/20 07:23:03;;;;;;;8.53;2.93;;;;;;;;;;5034004;28;20317;-62
2022/01/20 07:25:29;;;;;;;9.37;3.00;;;;;;;;;;5034444;28;20209;-63
2022/01/20 07:27:55;;;;;;;9.23;3.73;;;;;;;;;;5034080;28;20440;-63
2022/01/20 07:30:21;;;;;;;9.10;2.70;;;;;;;;;;5034247;28;20423;-63
2022/01/20 07:32:47;;;;;;;9.57;3.03;;;;;;;;;;5034089;28;20439;-62
2022/01/20 07:35:13;;;;;;;5.67;2.10;;;;;;;;;;5034039;28;20447;-62
2022/01/20 07:37:39;;;;;;;8.87;2.93;;;;;;;;;;5034134;28;20456;-63
2022/01/20 07:40:08;;;;;;;6.93;2.10;;;;;;;;;;5034048;28;20486;-62
2022/01/20 07:42:34;;;;;;;10.60;2.67;;;;;;;;;;5034023;28;20229;-63
2022/01/20 07:45:00;;;;;;;9.73;3.10;;;;;;;;;;5034133;28;20478;-62
2022/01/20 07:47:26;;;;;;;7.13;2.50;;;;;;;;;;5033963;28;20448;-62
2022/01/20 07:49:52;;;;;;;7.97;2.83;;;;;;;;;;5033831;28;20276;-62
2022/01/20 07:52:18;;;;;;;12.00;2.57;;;;;;;;;;5034058;28;20471;-63
2022/01/20 07:54:44;;;;;;;12.53;3.13;;;;;;;;;;5033907;28;20231;-62
2022/01/20 07:57:11;;;;;;;7.90;2.70;;;;;;;;;;5033678;28;20204;-62
2022/01/20 07:59:37;;;;;;;11.53;2.90;;;;;;;;;;5033818;28;20495;-61
2022/01/20 08:02:03;;;;;;;7.83;3.10;;;;;;;;;;5033398;28;20471;-63
2022/01/20 08:04:29;;;;;;;9.07;2.50;;;;;;;;;;5033797;28;20458;-62
2022/01/20 08:06:55;;;;;;;9.97;2.73;;;;;;;;;;5033637;28;20440;-62
2022/01/20 08:09:23;;;;;;;6.07;2.83;;;;;;;;;;5033466;28;20482;-61
2022/01/20 08:11:49;;;;;;;6.40;2.43;;;;;;;;;;5033363;28;20236;-61
2022/01/20 08:14:17;;;;;;;8.00;2.40;;;;;;;;;;5033484;28;20489;-62
2022/01/20 08:16:43;;;;;;;8.10;2.50;;;;;;;;;;5033197;28;20439;-62
2022/01/20 08:19:09;;;;;;;9.17;2.43;;;;;;;;;;5033151;28;20515;-62
2022/01/20 08:21:35;;;;;;;9.50;3.40;;;;;;;;;;5033227;28;20919;-62
2022/01/20 08:24:01;;;;;;;6.47;2.33;;;;;;;;;;5033265;28;20251;-62
2022/01/20 08:26:27;;;;;;;7.07;2.50;;;;;;;;;;5033328;28;20735;-60
2022/01/20 08:28:53;;;;;;;10.67;2.97;;;;;;;;;;5033194;28;20454;-62
2022/01/20 08:31:20;;;;;;;9.17;3.03;;;;;;;;;;5033283;28;20450;-65
2022/01/20 08:33:46;;;;;;;6.87;2.77;;;;;;;;;;5033061;28;20457;-61
2022/01/20 08:36:12;;;;;;;12.60;2.87;;;;;;;;;;5033216;28;20458;-67
2022/01/20 08:38:38;;;;;;;7.57;2.60;;;;;;;;;;5033122;28;20292;-71
2022/01/20 08:41:04;;;;;;;9.37;3.93;;;;;;;;;;5032823;28;20461;-68
2022/01/20 08:43:38;;;;;;;10.10;2.70;;;;;;;;;;5032845;28;20966;-68
2022/01/20 08:46:06;;;;;;;8.77;2.70;;;;;;;;;;5032027;28;20836;-62
2022/01/20 08:48:33;;;;;;;8.80;2.70;;;;;;;;;;5032782;28;20471;-68
2022/01/20 08:50:59;;;;;;;10.40;2.73;;;;;;;;;;5032727;28;20455;-68
2022/01/20 08:53:26;;;;;;;8.33;2.03;;;;;;;;;;5014996;28;20427;-66
2022/01/20 08:55:52;;;;;;;8.70;2.67;;;;;;;;;;5032646;28;20443;-67
2022/01/20 08:58:18;;;;;;;11.33;2.50;;;;;;;;;;5032342;28;20431;-66
2022/01/20 09:00:44;;;;;;;7.73;2.37;;;;;;;;;;5032291;28;20443;-66
2022/01/20 09:03:10;;;;;;;8.30;2.47;;;;;;;;;;5032204;28;20711;-66
2022/01/20 09:05:38;;;;;;;4.87;2.20;;;;;;;;;;5032484;28;20523;-66
2022/01/20 09:08:04;;;;;;;11.43;2.83;;;;;;;;;;5032372;28;20468;-65
2022/01/20 09:10:37;;;;;;;8.27;2.40;;;;;;;;;;5032608;28;20423;-66
2022/01/20 09:15:48;;;;;;;7.07;2.93;;;;;;;;;;5032453;28;20939;-65
2022/01/20 09:18:14;;;;;;;8.90;2.83;;;;;;;;;;5032459;28;20432;-66
2022/01/20 09:20:42;;;;;;;6.23;2.43;;;;;;;;;;5032321;28;20803;-65
2022/01/20 09:23:08;;;;;;;7.57;2.50;;;;;;;;;;5032062;28;20883;-65
2022/01/20 09:25:35;;;;;;;9.10;2.63;;;;;;;;;;5032189;28;20432;-64
2022/01/20 09:28:01;;;;;;;6.63;2.10;;;;;;;;;;5032157;28;20965;-65
2022/01/20 09:30:27;;;;;;;7.73;2.50;;;;;;;;;;5032300;28;20443;-67
2022/01/20 09:33:10;;;;;;;9.43;2.80;;;;;;;;;;5032008;28;20450;-66
2022/01/20 09:35:36;;;;;;;8.30;3.10;;;;;;;;;;5032252;28;20577;-65
2022/01/20 09:38:04;;;;;;;11.63;2.87;;;;;;;;;;5031854;28;20815;-65
2022/01/20 09:40:31;;;;;;;10.40;2.50;;;;;;;;;;5031896;28;20448;-64
2022/01/20 09:42:57;;;;;;;8.60;3.10;;;;;;;;;;5030146;28;20475;-64
2022/01/20 09:45:23;;;;;;;7.90;3.03;;;;;;;;;;5031789;28;20446;-64
2022/01/20 09:47:49;;;;;;;11.40;3.57;;;;;;;;;;5031625;28;20443;-65
2022/01/20 09:50:18;;;;;;;13.20;2.83;;;;;;;;;;5031998;28;20436;-65
2022/01/20 09:52:45;;;;;;;9.27;2.47;;;;;;;;;;5031868;28;20514;-65
2022/01/20 09:55:12;;;;;;;10.23;2.57;;;;;;;;;;5031587;28;20450;-65
2022/01/20 09:57:38;;;;;;;8.27;2.70;;;;;;;;;;5031629;28;20454;-65
2022/01/20 10:00:05;;;;;;;6.57;2.50;;;;;;;;;;5031629;28;20428;-66
2022/01/20 10:02:31;;;;;;;10.37;2.80;;;;;;;;;;5031378;28;20259;-65
2022/01/20 10:04:58;;;;;;;10.20;3.17;;;;;;;;;;5031678;28;20460;-66
2022/01/20 10:07:30;;;;;;;8.63;2.50;;;;;;;;;;5031740;28;20451;-66
2022/01/20 10:09:56;;;;;;;8.37;2.80;;;;;;;;;;5031661;28;20486;-66
2022/01/20 10:12:28;;;;;;;8.57;2.30;;;;;;;;;;5031486;28;20476;-66
2022/01/20 10:14:56;;;;;;;6.57;2.40;;;;;;;;;;5031521;28;20432;-66
2022/01/20 10:17:23;;;;;;;10.10;2.53;;;;;;;;;;5031568;28;20431;-66
2022/01/20 10:19:51;;;;;;;5.50;2.13;;;;;;;;;;5031423;28;20440;-67
2022/01/20 10:22:22;;;;;;;6.43;2.30;;;;;;;;;;5031371;28;20484;-66
2022/01/20 10:24:57;;;;;;;6.03;2.10;;;;;;;;;;5031215;28;20432;-67
2022/01/20 10:27:24;;;;;;;4.77;2.33;;;;;;;;;;5031488;28;20439;-69
2022/01/20 10:29:55;;;;;;;3.47;1.90;;;;;;;;;;5031454;28;20455;-69
2022/01/20 10:32:21;;;;;;;6.23;2.10;;;;;;;;;;5031294;28;20434;-68
2022/01/20 10:34:47;;;;;;;7.17;2.60;;;;;;;;;;5031358;28;20463;-69
2022/01/20 10:37:16;;;;;;;8.70;2.33;;;;;;;;;;5031413;28;20483;-68
2022/01/20 10:39:44;;;;;;;4.80;1.80;;;;;;;;;;5031531;28;20217;-69
2022/01/20 10:42:10;;;;;;;6.00;2.20;;;;;;;;;;5031350;28;20592;-69
2022/01/20 10:44:41;;;;;;;4.50;2.27;;;;;;;;;;5031627;28;20436;-70
2022/01/20 10:47:10;;;;;;;4.50;2.20;;;;;;;;;;5031111;28;21034;-70
2022/01/20 10:49:36;;;;;;;4.60;2.10;;;;;;;;;;5031349;28;20438;-71
2022/01/20 10:52:04;;;;;;;5.53;2.10;;;;;;;;;;5031054;28;20451;-72
2022/01/20 10:54:37;;;;;;;4.10;1.90;;;;;;;;;;5031443;28;20276;-73
2022/01/20 10:57:03;;;;;;;5.53;2.20;;;;;;;;;;5030982;28;20916;-70
2022/01/20 10:59:29;;;;;;;8.20;2.30;;;;;;;;;;5031206;28;21053;-71
2022/01/20 11:02:01;;;;;;;4.97;2.37;;;;;;;;;;5031100;28;20478;-71
2022/01/20 11:04:28;;;;;;;6.73;2.23;;;;;;;;;;5031016;28;20798;-71
2022/01/20 11:06:56;;;;;;;7.23;2.67;;;;;;;;;;5030908;28;20531;-71
2022/01/20 11:09:24;;;;;;;5.00;2.53;;;;;;;;;;5033238;28;20428;-71
2022/01/20 11:11:51;;;;;;;5.43;2.40;;;;;;;;;;5034418;28;20475;-72
2022/01/20 11:14:17;;;;;;;6.87;2.33;;;;;;;;;;5034584;28;20450;-73
2022/01/20 11:16:43;;;;;;;4.80;1.90;;;;;;;;;;5034828;28;20443;-74
2022/01/20 11:19:18;;;;;;;4.37;2.00;;;;;;;;;;5034588;28;20501;-75
2022/01/20 11:21:45;;;;;;;4.90;2.27;;;;;;;;;;5034471;28;20501;-76
2022/01/20 11:24:18;;;;;;;7.30;2.20;;;;;;;;;;5035702;28;20725;-74
2022/01/20 11:26:48;;;;;;;7.63;2.73;;;;;;;;;;5034613;28;20196;-71
2022/01/20 11:29:14;;;;;;;8.53;2.40;;;;;;;;;;5034682;28;20208;-70
2022/01/20 11:31:40;;;;;;;8.37;2.97;;;;;;;;;;5034440;28;20288;-60
2022/01/20 11:34:13;;;;;;;9.17;2.63;;;;;;;;;;5034166;28;20205;-60
2022/01/20 11:36:41;;;;;;;8.10;3.20;;;;;;;;;;5034228;28;20200;-65
2022/01/20 11:39:07;;;;;;;7.90;2.50;;;;;;;;;;5034119;28;20209;-65
2022/01/20 11:41:34;;;;;;;7.30;2.53;;;;;;;;;;5034171;28;20205;-66
2022/01/20 11:44:08;;;;;;;7.97;2.53;;;;;;;;;;5034128;28;20680;-64
2022/01/20 11:46:38;;;;;;;5.20;2.20;;;;;;;;;;5034105;28;20211;-66
2022/01/20 11:49:09;;;;;;;5.07;2.43;;;;;;;;;;5033689;28;20224;-65
2022/01/20 11:51:47;;;;;;;7.60;2.50;;;;;;;;;;5034323;28;20212;-65
2022/01/20 11:54:16;;;;;;;5.37;2.43;;;;;;;;;;5034784;28;20200;-63
2022/01/20 11:56:44;;;;;;;5.93;3.20;;;;;;;;;;5034342;28;20251;-63
2022/01/20 11:59:11;;;;;;;7.77;2.70;;;;;;;;;;5033741;28;20204;-65
2022/01/20 12:01:44;;;;;;;9.17;3.20;;;;;;;;;;5033767;28;20221;-65
2022/01/20 12:04:10;;;;;;;5.03;2.03;;;;;;;;;;5033754;28;20225;-63
2022/01/20 12:06:45;;;;;;;8.47;2.67;;;;;;;;;;5033778;28;20989;-64
2022/01/20 12:09:13;;;;;;;5.20;1.93;;;;;;;;;;5033559;28;20209;-65
2022/01/20 12:11:40;;;;;;;5.20;2.10;;;;;;;;;;5031660;28;20554;-66
2022/01/20 12:14:07;;;;;;;5.83;2.23;;;;;;;;;;5033554;28;20443;-65
2022/01/20 12:16:33;;;;;;;7.07;2.13;;;;;;;;;;5033380;28;20550;-63
2022/01/20 12:19:00;;;;;;;5.43;2.13;;;;;;;;;;5033445;28;20446;-62
2022/01/20 12:21:27;;;;;;;7.87;2.50;;;;;;;;;;5033331;28;20517;-62
2022/01/20 12:23:53;;;;;;;7.07;2.63;;;;;;;;;;5033157;28;20458;-63
2022/01/20 12:26:21;;;;;;;7.03;1.90;;;;;;;;;;5033394;28;20805;-62
2022/01/20 12:28:48;;;;;;;6.77;2.20;;;;;;;;;;5032999;28;20539;-62
2022/01/20 12:31:14;;;;;;;3.70;2.00;;;;;;;;;;5033135;28;20456;-63
2022/01/20 12:33:44;;;;;;;7.57;2.37;;;;;;;;;;5033195;28;20870;-64
2022/01/20 12:36:12;;;;;;;4.93;2.10;;;;;;;;;;5032978;28;20880;-62
2022/01/20 12:38:39;;;;;;;6.27;2.13;;;;;;;;;;5033058;28;20448;-65
2022/01/20 12:41:07;;;;;;;6.70;2.17;;;;;;;;;;5032922;28;20439;-62
2022/01/20 12:43:35;;;;;;;5.47;2.47;;;;;;;;;;5032869;28;20526;-68
2022/01/20 12:46:02;;;;;;;6.73;2.17;;;;;;;;;;5032931;28;20205;-64
2022/01/20 12:48:28;;;;;;;5.87;2.30;;;;;;;;;;5032974;28;20201;-63
2022/01/20 12:50:55;;;;;;;5.13;1.90;;;;;;;;;;5032983;28;20259;-64
2022/01/20 12:53:31;;;;;;;4.43;2.50;;;;;;;;;;5032840;28;20603;-63
2022/01/20 12:55:56;;;;;;;6.70;2.17;;;;;;;;;;5032885;28;20227;-64
2022/01/20 12:58:22;;;;;;;3.23;1.77;;;;;;;;;;5032130;28;20193;-62
2022/01/20 13:00:58;;;;;;;5.53;2.20;;;;;;;;;;5032656;28;20208;-64
2022/01/20 13:03:33;;;;;;;6.03;2.40;;;;;;;;;;5032662;28;20271;-63
2022/01/20 13:05:59;;;;;;;4.40;2.00;;;;;;;;;;5032599;28;20228;-64
2022/01/20 13:08:31;;;;;;;6.53;2.20;;;;;;;;;;5032852;28;20201;-62
2022/01/20 13:11:01;;;;;;;4.93;1.70;;;;;;;;;;5032357;28;20252;-65
2022/01/20 13:13:27;;;;;;;6.07;2.30;;;;;;;;;;5032763;28;20452;-64
2022/01/20 13:15:53;;;;;;;8.90;2.00;;;;;;;;;;5032384;28;20199;-64
2022/01/20 13:18:20;;;;;;;7.33;1.90;;;;;;;;;;5032296;28;20653;-64
2022/01/20 13:20:52;;;;;;;6.43;2.30;;;;;;;;;;5032407;28;20203;-64
2022/01/20 13:25:47;;;;;;;5.43;2.00;;;;;;;;;;5032049;28;20494;-64
2022/01/20 13:28:16;;;;;;;6.57;2.10;;;;;;;;;;5032211;28;20439;-65
2022/01/20 13:30:47;;;;;;;3.37;1.80;;;;;;;;;;5032585;28;20438;-64
2022/01/20 13:33:14;;;;;;;4.47;2.00;;;;;;;;;;5031985;28;20450;-65
2022/01/20 13:35:42;;;;;;;5.93;2.10;;;;;;;;;;5032425;28;20455;-64
2022/01/20 13:38:08;;;;;;;4.77;1.90;;;;;;;;;;5032026;28;20287;-64
2022/01/20 13:40:35;;;;;;;4.77;2.00;;;;;;;;;;5032202;28;20498;-65
2022/01/20 13:45:41;;;;;;;8.83;2.50;;;;;;;;;;5032142;28;20494;-64
2022/01/20 13:48:07;;;;;;;5.20;2.10;;;;;;;;;;5031714;28;20192;-62
2022/01/20 13:50:35;;;;;;;8.60;2.50;;;;;;;;;;5031889;28;20875;-65
2022/01/20 13:53:10;;;;;;;7.13;1.93;;;;;;;;;;5031862;28;20435;-65
2022/01/20 13:55:37;;;;;;;3.53;1.70;;;;;;;;;;5031934;28;20672;-63
2022/01/20 13:58:03;;;;;;;3.73;1.57;;;;;;;;;;5031546;28;20457;-65
2022/01/20 14:00:30;;;;;;;3.60;1.50;;;;;;;;;;5031781;28;20501;-64
2022/01/20 14:02:57;;;;;;;2.70;1.50;;;;;;;;;;5029399;28;20537;-67
2022/01/20 14:05:26;;;;;;;2.20;1.30;;;;;;;;;;5031752;28;20462;-64
2022/01/20 14:07:52;;;;;;;2.63;1.57;;;;;;;;;;5031659;28;20502;-64
2022/01/20 14:10:19;;;;;;;1.57;1.30;;;;;;;;;;5031572;28;20434;-63
2022/01/20 14:12:46;;;;;;;4.53;1.63;;;;;;;;;;5031636;28;20471;-61
2022/01/20 14:15:12;;;;;;;5.47;1.77;;;;;;;;;;5031956;28;20447;-62
2022/01/20 14:17:39;;;;;;;4.57;1.80;;;;;;;;;;5031499;28;20787;-63
2022/01/20 14:20:07;;;;;;;7.53;1.83;;;;;;;;;;5031018;28;20424;-63
2022/01/20 14:22:33;;;;;;;5.50;1.90;;;;;;;;;;5031099;28;20483;-63
2022/01/20 14:24:59;;;;;;;12.73;4.40;;;;;;;;;;5031532;28;20497;-62
2022/01/20 14:27:26;;;;;;;10.43;4.03;;;;;;;;;;5031382;28;20444;-62
2022/01/20 14:29:52;;;;;;;7.43;2.77;;;;;;;;;;5031169;28;20217;-62
2022/01/20 14:32:18;;;;;;;6.27;2.73;;;;;;;;;;5031115;28;20454;-62
2022/01/20 14:34:45;;;;;;;4.30;1.97;;;;;;;;;;5031410;28;20204;-64
2022/01/20 14:37:11;;;;;;;5.40;2.17;;;;;;;;;;5031103;28;20510;-63
2022/01/20 14:39:37;;;;;;;8.30;2.30;;;;;;;;;;5031272;28;20489;-65
2022/01/20 14:42:04;;;;;;;6.67;2.33;;;;;;;;;;5031125;28;20482;-64
2022/01/20 14:44:31;;;;;;;8.33;2.27;;;;;;;;;;5033578;28;20816;-64
2022/01/20 14:46:58;;;;;;;4.43;2.27;;;;;;;;;;5033015;28;20443;-64
2022/01/20 14:49:24;;;;;;;6.23;2.20;;;;;;;;;;5034727;28;20467;-65
2022/01/20 14:51:50;;;;;;;10.03;3.20;;;;;;;;;;5034677;28;20493;-63
2022/01/20 14:54:16;;;;;;;7.53;2.50;;;;;;;;;;5034613;28;20836;-64
2022/01/20 14:56:42;;;;;;;10.57;2.83;;;;;;;;;;5034721;28;20493;-63
2022/01/20 14:59:08;;;;;;;4.53;2.20;;;;;;;;;;5034436;28;20435;-62
2022/01/20 15:01:37;;;;;;;4.20;1.90;;;;;;;;;;5034396;28;20485;-63
2022/01/20 15:04:03;;;;;;;4.80;2.13;;;;;;;;;;5034183;28;20467;-64
2022/01/20 15:06:29;;;;;;;4.90;1.80;;;;;;;;;;5034619;28;20440;-64
2022/01/20 15:08:55;;;;;;;3.27;1.63;;;;;;;;;;5034346;28;20439;-65
2022/01/20 15:11:21;;;;;;;3.73;1.70;;;;;;;;;;5034095;28;20487;-64
2022/01/20 15:13:47;;;;;;;4.27;1.67;;;;;;;;;;5034368;28;20447;-64
2022/01/20 15:16:13;;;;;;;6.90;1.80;;;;;;;;;;5034385;28;20443;-64
2022/01/20 15:18:41;;;;;;;4.50;1.77;;;;;;;;;;5034206;28;20207;-65
2022/01/20 15:21:07;;;;;;;6.93;1.87;;;;;;;;;;5034086;28;20447;-64
2022/01/20 15:23:33;;;;;;;5.70;1.97;;;;;;;;;;5034135;28;20574;-64
2022/01/20 15:25:59;;;;;;;4.00;1.73;;;;;;;;;;5034166;28;20208;-65
2022/01/20 15:28:29;;;;;;;4.90;1.90;;;;;;;;;;5034243;28;20518;-66
2022/01/20 15:30:55;;;;;;;5.87;2.00;;;;;;;;;;5034356;28;20466;-64
2022/01/20 15:33:21;;;;;;;3.93;2.20;;;;;;;;;;5034181;28;20432;-64
2022/01/20 15:35:48;;;;;;;6.13;2.17;;;;;;;;;;5034353;28;20219;-64
2022/01/20 15:38:14;;;;;;;8.70;2.10;;;;;;;;;;5032403;28;20205;-65
2022/01/20 15:40:40;;;;;;;3.77;1.60;;;;;;;;;;5034410;28;20543;-65
2022/01/20 15:43:06;;;;;;;7.77;2.23;;;;;;;;;;5034253;28;20221;-66